Time;durP1;ratioP1;P1;durP2;ratioP2;P2;SDS_P1;SDS_P2;PMS_P1;PMS_P2;Temp;Humidity;BMP_temperature;BMP_pressure;BME280_temperature;BME280_humidity;BME280_pressure;Samples;Min_cycle;Max_cycle;Signal;HPM_P1;HPM_P2
2022/04/16 00:01:17;;;;;;;7.07;4.35;;;23.50;42.00;;;;;;6113924;28;86729;-72
2022/04/16 00:04:17;;;;;;;6.35;4.18;;;23.50;42.00;;;;;;6135513;28;80201;-72
2022/04/16 00:07:18;;;;;;;8.23;4.88;;;23.50;42.00;;;;;;6137745;28;81457;-71
2022/04/16 00:10:19;;;;;;;7.72;5.18;;;23.50;42.00;;;;;;6138463;28;80291;-72
2022/04/16 00:13:19;;;;;;;7.50;4.72;;;23.50;42.00;;;;;;6136053;28;80670;-72
2022/04/16 00:16:20;;;;;;;9.00;4.80;;;23.50;41.90;;;;;;6136550;28;81351;-72
2022/04/16 00:19:21;;;;;;;4.80;3.70;;;23.50;41.90;;;;;;6119024;28;80752;-72
2022/04/16 00:22:23;;;;;;;6.45;4.57;;;23.50;41.90;;;;;;6134223;28;81431;-72
2022/04/16 00:25:24;;;;;;;7.63;4.38;;;23.50;41.90;;;;;;6137463;28;81219;-72
2022/04/16 00:28:27;;;;;;;7.38;4.97;;;23.50;41.90;;;;;;6137311;28;80325;-72
2022/04/16 00:31:28;;;;;;;5.60;4.03;;;23.50;41.80;;;;;;6137543;28;80415;-73
2022/04/16 00:34:29;;;;;;;7.65;4.80;;;23.50;41.90;;;;;;6137066;28;80232;-73
2022/04/16 00:37:29;;;;;;;8.15;5.03;;;23.50;41.80;;;;;;6136453;28;80382;-73
2022/04/16 00:40:30;;;;;;;6.50;4.55;;;23.50;41.80;;;;;;6137427;28;80296;-73
2022/04/16 00:43:31;;;;;;;7.22;4.85;;;23.50;41.80;;;;;;6137140;28;81084;-73
2022/04/16 00:46:31;;;;;;;6.05;4.28;;;23.50;41.80;;;;;;6137638;28;80513;-72
2022/04/16 00:49:32;;;;;;;8.00;5.05;;;23.50;41.80;;;;;;6133902;28;81064;-72
2022/04/16 00:52:32;;;;;;;6.88;4.78;;;23.50;41.80;;;;;;6137363;28;80625;-72
2022/04/16 00:55:33;;;;;;;6.70;4.70;;;23.50;41.80;;;;;;6113967;28;81315;-72
2022/04/16 00:58:33;;;;;;;9.45;4.93;;;23.50;41.80;;;;;;6119365;28;80329;-72
2022/04/16 01:01:34;;;;;;;8.20;4.90;;;23.50;41.80;;;;;;6136878;28;80416;-71
2022/04/16 01:04:35;;;;;;;7.63;4.88;;;23.50;41.70;;;;;;6123251;28;80255;-73
2022/04/16 01:07:36;;;;;;;6.72;4.50;;;23.50;41.80;;;;;;6113383;28;80718;-71
2022/04/16 01:10:36;;;;;;;8.55;5.03;;;23.50;41.70;;;;;;6113229;28;80770;-71
2022/04/16 01:13:37;;;;;;;7.38;4.90;;;23.50;41.70;;;;;;6117738;28;81074;-73
2022/04/16 01:16:37;;;;;;;6.80;4.78;;;23.50;41.70;;;;;;6136763;28;81486;-73
2022/04/16 01:19:38;;;;;;;6.65;4.72;;;23.50;41.70;;;;;;6125036;28;80800;-71
2022/04/16 01:22:39;;;;;;;6.60;4.82;;;23.50;41.70;;;;;;6112685;28;80526;-72
2022/04/16 01:25:40;;;;;;;7.38;4.60;;;23.50;41.70;;;;;;6113115;28;80856;-73
2022/04/16 01:28:40;;;;;;;5.55;4.55;;;23.50;41.70;;;;;;6112871;28;80512;-73
2022/04/16 01:31:41;;;;;;;7.05;5.13;;;23.50;41.70;;;;;;6124174;28;81489;-73
2022/04/16 01:34:42;;;;;;;7.22;5.22;;;23.50;41.70;;;;;;6136381;28;80568;-72
2022/04/16 01:37:42;;;;;;;6.93;5.28;;;23.50;41.70;;;;;;6136658;28;80347;-72
2022/04/16 01:40:43;;;;;;;7.72;4.78;;;23.50;41.70;;;;;;6136226;28;80385;-73
2022/04/16 01:43:43;;;;;;;9.15;5.07;;;23.50;41.70;;;;;;6135988;28;80360;-72
2022/04/16 01:46:44;;;;;;;6.25;4.70;;;23.50;41.70;;;;;;6133354;28;80335;-73
2022/04/16 01:49:46;;;;;;;6.43;4.35;;;23.50;41.70;;;;;;6134828;28;80678;-72
2022/04/16 01:52:47;;;;;;;7.57;4.65;;;23.50;41.70;;;;;;6136103;28;80894;-71
2022/04/16 01:55:47;;;;;;;5.30;3.95;;;23.50;41.70;;;;;;6134847;28;81212;-72
2022/04/16 01:58:49;;;;;;;3.90;3.20;;;23.50;41.70;;;;;;6136107;28;81013;-72
2022/04/16 02:01:50;;;;;;;6.85;3.83;;;23.50;41.70;;;;;;6135360;28;81670;-72
2022/04/16 02:04:51;;;;;;;4.95;3.58;;;23.50;41.70;;;;;;6135822;28;80506;-72
2022/04/16 02:07:51;;;;;;;4.45;3.20;;;23.50;41.60;;;;;;6135939;28;80391;-71
2022/04/16 02:10:52;;;;;;;3.70;2.60;;;23.40;41.60;;;;;;6135330;28;80463;-70
2022/04/16 02:13:52;;;;;;;3.40;2.70;;;23.50;41.60;;;;;;6133768;28;81848;-73
2022/04/16 02:16:53;;;;;;;4.28;2.97;;;23.50;41.60;;;;;;6114983;28;80550;-73
2022/04/16 02:19:54;;;;;;;4.40;3.28;;;23.40;41.60;;;;;;6115098;28;80908;-72
2022/04/16 02:22:54;;;;;;;3.53;2.97;;;23.40;41.60;;;;;;6135318;28;80406;-73
2022/04/16 02:25:55;;;;;;;4.40;2.78;;;23.50;41.60;;;;;;6135524;28;80456;-74
2022/04/16 02:28:56;;;;;;;3.90;2.97;;;23.40;41.50;;;;;;6135617;28;80718;-75
2022/04/16 02:31:57;;;;;;;3.17;2.78;;;23.40;41.50;;;;;;6131056;28;81720;-74
2022/04/16 02:34:57;;;;;;;3.08;2.60;;;23.50;41.60;;;;;;6133404;28;80489;-71
2022/04/16 02:37:58;;;;;;;3.55;2.78;;;23.40;41.50;;;;;;6111284;28;80876;-72
2022/04/16 02:40:58;;;;;;;2.83;2.35;;;23.50;41.60;;;;;;6120129;28;80698;-73
2022/04/16 02:43:59;;;;;;;3.28;2.40;;;23.40;41.50;;;;;;6135119;28;80259;-73
2022/04/16 02:47:06;;;;;;;3.55;2.60;;;23.40;41.50;;;;;;6117984;28;87148;-72
2022/04/16 02:50:06;;;;;;;3.10;2.25;;;23.40;41.50;;;;;;6111718;28;80931;-72
2022/04/16 02:53:07;;;;;;;2.97;2.13;;;23.40;41.50;;;;;;6134595;28;80245;-72
2022/04/16 02:56:07;;;;;;;2.72;2.22;;;23.40;41.40;;;;;;6126278;28;80747;-72
2022/04/16 02:59:08;;;;;;;2.65;2.10;;;23.40;41.40;;;;;;6110782;28;80511;-73
2022/04/16 03:02:08;;;;;;;2.58;2.00;;;23.40;41.40;;;;;;6125303;28;82049;-72
2022/04/16 03:05:09;;;;;;;3.28;2.17;;;23.40;41.40;;;;;;6134623;28;80443;-72
2022/04/16 03:08:12;;;;;;;2.70;2.10;;;23.40;41.30;;;;;;6110427;28;80511;-72
2022/04/16 03:11:12;;;;;;;2.78;1.90;;;23.40;42.00;;;;;;6132133;28;80407;-72
2022/04/16 03:17:32;;;;;;;2.67;2.00;;;23.40;41.30;;;;;;6118675;28;82153;-72
2022/04/16 03:20:32;;;;;;;2.25;2.05;;;23.40;41.30;;;;;;6110828;28;80177;-72
2022/04/16 03:23:33;;;;;;;2.08;1.88;;;23.40;41.60;;;;;;6118813;28;80738;-73
2022/04/16 03:26:33;;;;;;;2.08;1.55;;;23.40;41.20;;;;;;6131062;28;80220;-73
2022/04/16 03:29:34;;;;;;;2.90;1.98;;;23.40;41.20;;;;;;6134278;28;80316;-73
2022/04/16 03:32:35;;;;;;;3.65;2.15;;;23.40;41.30;;;;;;6120608;28;87930;-73
2022/04/16 03:35:35;;;;;;;1.55;1.45;;;23.40;41.30;;;;;;6110859;28;80319;-73
2022/04/16 03:38:36;;;;;;;3.88;2.30;;;23.40;41.20;;;;;;6126425;28;80948;-73
2022/04/16 03:41:36;;;;;;;1.77;1.48;;;23.40;41.20;;;;;;6133797;28;81737;-73
2022/04/16 03:44:37;;;;;;;2.05;1.52;;;23.40;41.20;;;;;;6134098;28;80498;-73
2022/04/16 03:47:37;;;;;;;2.33;1.70;;;23.40;41.20;;;;;;6132038;28;81751;-73
2022/04/16 03:50:38;;;;;;;2.60;1.90;;;23.40;41.10;;;;;;6133949;28;80536;-72
2022/04/16 03:53:38;;;;;;;2.47;1.45;;;23.40;41.20;;;;;;6133273;28;81324;-73
2022/04/16 04:00:03;;;;;;;2.55;1.60;;;23.40;41.10;;;;;;6133383;28;80531;-73
2022/04/16 04:03:11;;;;;;;1.73;1.50;;;23.40;41.10;;;;;;6119143;28;80641;-73
2022/04/16 04:06:12;;;;;;;2.50;1.52;;;23.40;41.10;;;;;;6121581;28;82023;-72
2022/04/16 04:09:12;;;;;;;2.28;1.33;;;23.40;41.00;;;;;;6112852;28;80611;-72
2022/04/16 04:12:13;;;;;;;1.67;1.33;;;23.40;41.00;;;;;;6109674;28;80332;-72
2022/04/16 04:15:13;;;;;;;1.65;1.50;;;23.40;41.00;;;;;;6113263;28;81325;-71
2022/04/16 04:18:14;;;;;;;1.60;1.33;;;23.40;41.00;;;;;;6113115;28;81482;-72
2022/04/16 04:21:14;;;;;;;1.45;1.23;;;23.40;41.00;;;;;;6133141;28;80426;-72
2022/04/16 04:24:15;;;;;;;2.40;1.35;;;23.40;41.00;;;;;;6137112;28;81317;-72
2022/04/16 04:27:15;;;;;;;1.33;1.23;;;23.40;40.90;;;;;;6134313;28;80443;-73
2022/04/16 04:30:16;;;;;;;1.65;1.48;;;23.40;40.90;;;;;;6113545;28;81614;-73
2022/04/16 04:33:16;;;;;;;1.35;1.20;;;23.40;40.90;;;;;;6113760;28;81003;-73
2022/04/16 04:36:17;;;;;;;1.20;1.10;;;23.40;40.90;;;;;;6113498;28;81417;-73
2022/04/16 04:39:17;;;;;;;2.05;1.40;;;23.40;40.90;;;;;;6126499;28;80192;-73
2022/04/16 04:42:18;;;;;;;1.30;1.20;;;23.40;40.90;;;;;;6137025;28;80566;-72
2022/04/16 04:45:18;;;;;;;1.70;1.40;;;23.40;40.90;;;;;;6113213;28;80235;-73
2022/04/16 04:48:19;;;;;;;1.50;1.30;;;23.40;40.90;;;;;;6122523;28;80707;-72
2022/04/16 04:51:19;;;;;;;2.38;1.40;;;23.30;40.70;;;;;;6113189;28;80196;-72
2022/04/16 04:54:21;;;;;;;1.20;1.10;;;23.30;40.70;;;;;;6113459;28;80360;-72
2022/04/16 04:57:22;;;;;;;1.10;1.05;;;23.40;40.80;;;;;;6111815;28;81793;-72
2022/04/16 05:00:22;;;;;;;1.40;1.30;;;23.30;40.70;;;;;;6134953;28;80553;-72
2022/04/16 05:03:23;;;;;;;1.23;1.13;;;23.30;40.70;;;;;;6136510;28;81260;-72
2022/04/16 05:06:23;;;;;;;1.50;1.20;;;23.40;40.70;;;;;;6136944;28;80512;-72
2022/04/16 05:09:24;;;;;;;2.03;1.30;;;23.30;40.70;;;;;;6123942;28;80221;-72
2022/04/16 05:12:24;;;;;;;1.45;1.27;;;23.30;40.70;;;;;;6112217;28;80519;-73
2022/04/16 05:15:25;;;;;;;1.25;1.15;;;23.30;40.70;;;;;;6111450;28;81330;-72
2022/04/16 05:18:26;;;;;;;1.20;1.10;;;23.30;40.70;;;;;;6116192;28;80681;-72
2022/04/16 05:21:26;;;;;;;1.77;1.20;;;23.30;40.70;;;;;;6136795;28;81074;-74
2022/04/16 05:24:27;;;;;;;1.30;1.20;;;23.30;40.60;;;;;;6125469;28;80326;-74
2022/04/16 05:27:30;;;;;;;1.17;1.08;;;23.30;40.60;;;;;;6112683;28;80668;-74
2022/04/16 05:30:44;;;;;;;1.35;1.20;;;23.30;40.60;;;;;;6123801;28;81425;-74
2022/04/16 05:37:04;;;;;;;2.75;1.13;;;23.30;40.50;;;;;;6112425;28;80592;-74
2022/04/16 05:40:04;;;;;;;1.70;1.23;;;23.30;40.50;;;;;;6125793;28;80476;-74
2022/04/16 05:43:05;;;;;;;1.25;1.00;;;23.30;40.50;;;;;;6136839;28;80506;-73
2022/04/16 05:46:05;;;;;;;2.95;1.20;;;23.30;40.50;;;;;;6135936;28;80354;-74
2022/04/16 05:49:06;;;;;;;1.10;1.00;;;23.30;40.50;;;;;;6136010;28;80362;-73
2022/04/16 05:52:06;;;;;;;1.27;1.17;;;23.30;40.50;;;;;;6136036;28;80629;-73
2022/04/16 05:55:07;;;;;;;1.23;1.10;;;23.30;40.50;;;;;;6124638;28;80407;-72
2022/04/16 05:58:07;;;;;;;0.80;0.80;;;23.30;40.50;;;;;;6118924;28;82273;-75
2022/04/16 06:01:08;;;;;;;1.27;1.15;;;23.30;40.50;;;;;;6135444;28;80304;-72
2022/04/16 06:04:08;;;;;;;1.30;1.20;;;23.30;40.50;;;;;;6135347;28;81455;-73
2022/04/16 06:07:09;;;;;;;1.33;1.00;;;23.30;40.50;;;;;;6135644;28;80242;-72
2022/04/16 06:10:10;;;;;;;1.45;1.20;;;23.30;40.50;;;;;;6126333;28;80585;-73
2022/04/16 06:13:11;;;;;;;1.58;1.23;;;23.30;40.50;;;;;;6125774;28;83954;-72
2022/04/16 06:16:11;;;;;;;1.17;1.08;;;23.30;40.50;;;;;;6135526;28;80633;-71
2022/04/16 06:19:12;;;;;;;2.88;1.00;;;23.30;40.50;;;;;;6136208;28;80458;-71
2022/04/16 06:22:12;;;;;;;1.50;1.15;;;23.30;40.40;;;;;;6135704;28;81486;-72
2022/04/16 06:25:13;;;;;;;1.40;1.10;;;23.30;40.40;;;;;;6128564;28;80425;-73
2022/04/16 06:28:13;;;;;;;1.58;1.27;;;23.30;40.50;;;;;;6134976;28;81111;-72
2022/04/16 06:31:14;;;;;;;1.92;1.30;;;23.30;40.40;;;;;;6135504;28;80756;-73
2022/04/16 06:34:14;;;;;;;1.10;1.00;;;23.30;40.40;;;;;;6135650;28;80956;-73
2022/04/16 06:37:15;;;;;;;1.05;1.00;;;23.30;40.40;;;;;;6135043;28;80317;-71
2022/04/16 06:40:15;;;;;;;1.05;0.98;;;23.30;40.40;;;;;;6135490;28;80451;-72
2022/04/16 06:43:16;;;;;;;1.70;1.10;;;23.30;40.40;;;;;;6133724;28;81695;-72
2022/04/16 06:46:16;;;;;;;1.35;1.20;;;23.30;40.30;;;;;;6133640;28;83544;-72
2022/04/16 06:49:17;;;;;;;1.52;1.33;;;23.30;40.30;;;;;;6133588;28;83377;-72
2022/04/16 06:52:18;;;;;;;1.45;1.35;;;23.30;40.30;;;;;;6114950;28;80331;-72
2022/04/16 06:55:18;;;;;;;1.35;1.13;;;23.30;40.30;;;;;;6125174;28;80362;-72
2022/04/16 06:58:19;;;;;;;1.08;1.08;;;23.30;40.30;;;;;;6134855;28;81793;-72
2022/04/16 07:01:19;;;;;;;1.05;1.02;;;23.30;40.30;;;;;;6124039;28;80078;-72
2022/04/16 07:04:20;;;;;;;1.40;1.30;;;23.30;40.30;;;;;;6111293;28;80999;-72
2022/04/16 07:07:20;;;;;;;1.40;1.27;;;23.30;40.30;;;;;;6111300;28;80582;-71
2022/04/16 07:10:21;;;;;;;1.45;1.20;;;23.30;40.30;;;;;;6132159;28;81706;-73
2022/04/16 07:13:21;;;;;;;1.17;1.10;;;23.30;40.30;;;;;;6111065;28;80717;-71
2022/04/16 07:16:22;;;;;;;1.30;1.20;;;23.30;40.30;;;;;;6110702;28;80282;-71
2022/04/16 07:19:22;;;;;;;2.13;1.60;;;23.30;40.30;;;;;;6110991;28;80699;-71
2022/04/16 07:22:23;;;;;;;1.35;1.20;;;23.30;40.30;;;;;;6119890;28;80240;-71
2022/04/16 07:25:23;;;;;;;1.40;1.30;;;23.30;40.30;;;;;;6110842;28;80501;-72
2022/04/16 07:28:24;;;;;;;1.30;1.20;;;23.30;40.20;;;;;;6110491;28;80638;-72
2022/04/16 07:31:24;;;;;;;1.67;1.10;;;23.30;40.30;;;;;;6110217;28;80979;-72
2022/04/16 07:34:27;;;;;;;2.53;1.25;;;23.20;40.20;;;;;;6110453;28;80259;-72
2022/04/16 07:37:27;;;;;;;1.65;1.38;;;23.30;40.30;;;;;;6124231;28;80545;-73
2022/04/16 07:40:28;;;;;;;1.40;1.20;;;23.30;40.30;;;;;;6134136;28;80442;-73
2022/04/16 07:43:29;;;;;;;1.80;1.48;;;23.30;40.90;;;;;;6110371;28;80205;-74
2022/04/16 07:46:29;;;;;;;1.52;1.25;;;23.30;40.20;;;;;;6114500;28;80683;-73
2022/04/16 07:49:30;;;;;;;1.40;1.15;;;23.30;40.20;;;;;;6138225;28;79915;-73
2022/04/16 07:52:30;;;;;;;3.03;1.42;;;23.30;40.20;;;;;;6126820;28;80165;-72
2022/04/16 07:55:31;;;;;;;0.90;0.90;;;23.30;40.30;;;;;;6114429;28;80546;-73
2022/04/16 07:58:32;;;;;;;1.42;1.30;;;23.30;40.30;;;;;;6114433;28;81664;-73
2022/04/16 08:01:33;;;;;;;1.38;1.27;;;23.30;40.20;;;;;;6117738;28;83670;-72
2022/04/16 08:04:33;;;;;;;2.17;1.20;;;23.30;40.20;;;;;;6120296;28;80939;-72
2022/04/16 08:07:34;;;;;;;1.30;1.20;;;23.30;40.20;;;;;;6135858;28;80818;-72
2022/04/16 08:10:34;;;;;;;1.35;1.20;;;23.30;40.20;;;;;;6113913;28;80802;-72
2022/04/16 08:13:35;;;;;;;1.55;1.35;;;23.30;40.30;;;;;;6130752;28;80371;-72
2022/04/16 08:16:35;;;;;;;1.52;1.42;;;23.20;40.30;;;;;;6137814;28;80062;-73
2022/04/16 08:19:36;;;;;;;1.85;1.42;;;23.30;40.30;;;;;;6127974;28;80739;-72
2022/04/16 08:22:38;;;;;;;2.28;1.45;;;23.20;40.20;;;;;;6130487;28;80471;-72
2022/04/16 08:28:39;;;;;;;1.70;1.40;;;23.20;40.30;;;;;;6128768;28;81098;-73
2022/04/16 08:31:39;;;;;;;1.58;1.48;;;23.30;40.50;;;;;;6137565;28;80293;-73
2022/04/16 08:34:40;;;;;;;3.20;1.40;;;23.20;40.40;;;;;;6137135;28;80573;-72
2022/04/16 08:37:40;;;;;;;2.92;1.52;;;23.20;40.30;;;;;;6136091;28;81630;-72
2022/04/16 08:40:41;;;;;;;2.63;1.75;;;23.20;40.30;;;;;;6138030;28;80426;-72
2022/04/16 08:43:42;;;;;;;1.98;1.60;;;23.20;40.30;;;;;;6137436;28;80206;-73
2022/04/16 08:46:42;;;;;;;1.48;1.38;;;23.20;40.30;;;;;;6137309;28;81310;-73
2022/04/16 08:49:43;;;;;;;2.22;1.70;;;23.20;40.40;;;;;;6116888;28;80825;-73
2022/04/16 08:52:43;;;;;;;2.05;1.42;;;23.30;40.30;;;;;;6113183;28;80346;-73
2022/04/16 08:55:44;;;;;;;2.45;1.70;;;23.20;40.20;;;;;;6112976;28;81398;-73
2022/04/16 08:58:45;;;;;;;1.77;1.52;;;23.30;40.20;;;;;;6123286;28;80988;-73
2022/04/16 09:01:45;;;;;;;2.47;1.80;;;23.30;40.20;;;;;;6136931;28;81124;-72
2022/04/16 09:04:46;;;;;;;2.70;1.60;;;23.20;40.10;;;;;;6136786;28;80483;-73
2022/04/16 09:07:46;;;;;;;1.73;1.60;;;23.20;40.20;;;;;;6135150;28;80537;-73
2022/04/16 09:10:47;;;;;;;1.60;1.50;;;23.20;40.10;;;;;;6113015;28;80350;-73
2022/04/16 09:13:47;;;;;;;2.42;1.77;;;23.20;40.10;;;;;;6121506;28;80573;-74
2022/04/16 09:16:48;;;;;;;1.70;1.58;;;23.20;40.00;;;;;;6135775;28;80485;-75
2022/04/16 09:19:49;;;;;;;2.10;1.80;;;23.20;40.10;;;;;;6136450;28;80951;-73
2022/04/16 09:22:49;;;;;;;2.83;1.63;;;23.30;40.00;;;;;;6137275;28;80341;-74
2022/04/16 09:25:50;;;;;;;2.88;2.00;;;23.30;40.10;;;;;;6113705;28;80359;-74
2022/04/16 09:28:50;;;;;;;1.83;1.73;;;23.20;40.00;;;;;;6118438;28;80183;-74
2022/04/16 09:31:51;;;;;;;1.80;1.65;;;23.20;39.90;;;;;;6135766;28;80561;-73
2022/04/16 09:34:52;;;;;;;4.35;2.17;;;23.20;39.90;;;;;;6137015;28;81508;-75
2022/04/16 09:37:52;;;;;;;3.10;1.92;;;23.30;40.00;;;;;;6135834;28;80549;-73
2022/04/16 09:40:53;;;;;;;2.33;1.58;;;23.30;40.00;;;;;;6136641;28;81352;-73
2022/04/16 09:43:54;;;;;;;2.47;1.70;;;23.30;39.90;;;;;;6130166;28;83426;-73
2022/04/16 09:46:55;;;;;;;1.90;1.70;;;23.30;39.90;;;;;;6112495;28;80416;-73
2022/04/16 09:49:55;;;;;;;1.67;1.52;;;23.30;39.90;;;;;;6112606;28;80633;-73
2022/04/16 09:52:56;;;;;;;2.92;1.83;;;23.30;39.80;;;;;;6112281;28;80568;-72
2022/04/16 09:55:56;;;;;;;2.00;1.83;;;23.30;39.80;;;;;;6131709;28;80612;-71
2022/04/16 09:58:57;;;;;;;2.50;1.80;;;23.30;39.90;;;;;;6117656;28;80422;-72
2022/04/16 10:01:57;;;;;;;2.72;1.83;;;23.30;39.80;;;;;;6126389;28;81465;-72
2022/04/16 10:04:58;;;;;;;2.00;1.80;;;23.30;39.90;;;;;;6122288;28;80907;-72
2022/04/16 10:08:00;;;;;;;1.98;1.70;;;23.30;39.90;;;;;;6136491;28;80701;-72
2022/04/16 10:11:03;;;;;;;2.85;1.90;;;23.30;39.80;;;;;;6122562;28;80765;-72
2022/04/16 10:14:04;;;;;;;2.40;1.75;;;23.20;39.80;;;;;;6135442;28;80465;-72
2022/04/16 10:17:04;;;;;;;1.90;1.70;;;23.30;39.90;;;;;;6134139;28;83146;-72
2022/04/16 10:20:05;;;;;;;2.72;1.65;;;23.30;39.80;;;;;;6126706;28;80913;-71
2022/04/16 10:23:07;;;;;;;2.22;1.92;;;23.30;39.80;;;;;;6111871;28;80525;-72
2022/04/16 10:26:09;;;;;;;2.25;1.70;;;23.30;39.80;;;;;;6127429;28;81645;-73
2022/04/16 10:29:09;;;;;;;1.73;1.60;;;23.40;39.70;;;;;;6135272;28;81750;-72
2022/04/16 10:32:10;;;;;;;1.95;1.77;;;23.30;39.50;;;;;;6112118;28;80919;-72
2022/04/16 10:35:10;;;;;;;2.00;1.63;;;23.30;39.50;;;;;;6118103;28;81620;-72
2022/04/16 10:38:11;;;;;;;1.58;1.48;;;23.40;39.50;;;;;;6135649;28;80460;-72
2022/04/16 10:41:11;;;;;;;3.53;1.67;;;23.30;39.40;;;;;;6135182;28;81605;-72
2022/04/16 10:44:12;;;;;;;2.30;1.73;;;23.40;39.40;;;;;;6135806;28;80343;-73
2022/04/16 10:47:14;;;;;;;2.28;1.67;;;23.30;39.40;;;;;;6135131;28;81978;-73
2022/04/16 10:50:15;;;;;;;2.17;1.40;;;23.40;39.30;;;;;;6135413;28;80023;-73
2022/04/16 10:53:15;;;;;;;2.00;1.80;;;23.40;39.30;;;;;;6135581;28;81556;-72
2022/04/16 10:56:16;;;;;;;2.38;1.60;;;23.40;39.30;;;;;;6123788;28;80366;-72
2022/04/16 10:59:16;;;;;;;2.20;1.75;;;23.40;39.30;;;;;;6135671;28;80500;-72
2022/04/16 11:02:19;;;;;;;2.30;1.95;;;23.40;39.20;;;;;;6134527;28;80419;-73
2022/04/16 11:05:20;;;;;;;2.33;1.75;;;23.40;39.80;;;;;;6133022;28;87206;-72
2022/04/16 11:08:20;;;;;;;1.90;1.70;;;23.40;39.20;;;;;;6135165;28;81826;-73
2022/04/16 11:11:21;;;;;;;2.58;1.70;;;23.40;39.20;;;;;;6124777;28;80292;-73
2022/04/16 11:14:21;;;;;;;3.28;1.77;;;23.40;39.10;;;;;;6110908;28;80702;-73
2022/04/16 11:17:22;;;;;;;1.80;1.52;;;23.40;39.00;;;;;;6128775;28;80284;-73
2022/04/16 11:20:23;;;;;;;2.88;1.80;;;23.50;39.00;;;;;;6133574;28;80320;-73
2022/04/16 11:23:23;;;;;;;2.97;1.95;;;23.50;38.90;;;;;;6135194;28;80140;-73
2022/04/16 11:36:24;;;;;;;2.13;1.90;;;23.50;38.70;;;;;;6121403;28;80371;-73
2022/04/16 11:39:25;;;;;;;2.08;1.60;;;23.50;38.70;;;;;;6114625;28;80428;-73
2022/04/16 11:42:26;;;;;;;1.98;1.65;;;23.60;38.70;;;;;;6128845;28;80324;-73
2022/04/16 11:45:26;;;;;;;2.13;1.92;;;23.60;38.70;;;;;;6138302;28;81347;-73
2022/04/16 11:48:27;;;;;;;3.03;2.15;;;23.50;38.70;;;;;;6138164;28;80249;-75
2022/04/16 11:51:27;;;;;;;2.30;1.92;;;23.60;38.60;;;;;;6132009;28;81823;-73
2022/04/16 11:54:28;;;;;;;2.30;1.60;;;23.50;38.50;;;;;;6130225;28;80549;-74
2022/04/16 11:57:29;;;;;;;3.33;1.88;;;23.50;38.40;;;;;;6137932;28;80464;-73
2022/04/16 12:00:29;;;;;;;4.97;1.98;;;23.60;38.30;;;;;;6137273;28;80894;-73
2022/04/16 12:03:30;;;;;;;2.90;1.98;;;23.60;38.30;;;;;;6132914;28;81513;-73
2022/04/16 12:06:30;;;;;;;2.25;1.73;;;23.70;38.20;;;;;;6114283;28;80579;-73
2022/04/16 12:09:31;;;;;;;1.90;1.55;;;23.70;38.10;;;;;;6114210;28;82115;-73
2022/04/16 12:12:31;;;;;;;2.80;1.77;;;23.70;38.00;;;;;;6124351;28;80419;-74
2022/04/16 12:15:32;;;;;;;1.98;1.70;;;23.70;37.90;;;;;;6138443;28;80480;-74
2022/04/16 12:18:32;;;;;;;2.10;1.50;;;23.70;37.90;;;;;;6132316;28;82129;-72
2022/04/16 12:21:33;;;;;;;2.10;1.50;;;23.70;37.90;;;;;;6137775;28;80376;-72
2022/04/16 12:24:33;;;;;;;3.45;2.03;;;23.70;37.80;;;;;;6114315;28;80440;-72
2022/04/16 12:27:34;;;;;;;2.40;2.03;;;23.70;37.70;;;;;;6114296;28;80363;-72
2022/04/16 12:30:37;;;;;;;2.13;1.80;;;23.70;37.70;;;;;;6114153;28;80223;-72
2022/04/16 12:33:37;;;;;;;2.72;1.52;;;23.70;37.80;;;;;;6118508;28;80275;-72
2022/04/16 12:36:38;;;;;;;1.50;1.40;;;23.70;37.80;;;;;;6113976;28;81374;-72
2022/04/16 12:39:38;;;;;;;2.33;2.00;;;23.70;37.80;;;;;;6136689;28;80533;-72
2022/04/16 12:42:39;;;;;;;3.00;1.85;;;23.70;37.80;;;;;;6131369;28;80277;-72
2022/04/16 12:45:39;;;;;;;2.17;1.70;;;23.70;37.80;;;;;;6118346;28;80734;-72
2022/04/16 12:48:40;;;;;;;2.58;1.98;;;23.70;38.10;;;;;;6124376;28;80665;-72
2022/04/16 12:51:47;;;;;;;2.00;1.60;;;23.60;37.60;;;;;;6137254;28;80108;-72
2022/04/16 12:54:48;;;;;;;1.95;1.75;;;23.60;37.50;;;;;;6115523;28;80480;-73
2022/04/16 12:57:48;;;;;;;2.10;1.90;;;23.60;37.50;;;;;;6112947;28;80320;-72
2022/04/16 13:00:49;;;;;;;3.05;1.80;;;23.60;37.40;;;;;;6112297;28;80768;-72
2022/04/16 13:03:50;;;;;;;2.38;2.00;;;23.70;37.40;;;;;;6112776;28;80392;-72
2022/04/16 13:06:50;;;;;;;1.50;1.38;;;23.60;37.30;;;;;;6112715;28;80579;-71
2022/04/16 13:09:51;;;;;;;1.83;1.65;;;23.70;37.40;;;;;;6111575;28;80912;-72
2022/04/16 13:12:51;;;;;;;2.25;1.27;;;23.60;37.30;;;;;;6133899;28;80440;-73
2022/04/16 13:15:52;;;;;;;1.50;1.40;;;23.60;37.40;;;;;;6136819;28;80437;-73
2022/04/16 13:18:52;;;;;;;2.85;2.00;;;23.70;37.30;;;;;;6127637;28;81044;-72
2022/04/16 13:21:55;;;;;;;3.00;2.03;;;23.60;37.20;;;;;;6136580;28;81545;-72
2022/04/16 13:24:55;;;;;;;2.35;1.73;;;23.60;37.10;;;;;;6119033;28;80333;-73
2022/04/16 13:27:56;;;;;;;1.73;1.48;;;23.60;37.20;;;;;;6115525;28;81375;-72
2022/04/16 13:30:57;;;;;;;1.60;1.30;;;23.60;37.20;;;;;;6112608;28;81742;-73
2022/04/16 13:33:58;;;;;;;1.73;1.55;;;23.60;37.10;;;;;;6112643;28;80379;-72
2022/04/16 13:36:58;;;;;;;3.58;1.52;;;23.70;37.10;;;;;;6112915;28;80279;-73
2022/04/16 13:43:18;;;;;;;2.38;1.60;;;23.60;37.00;;;;;;6127795;28;85117;-73
2022/04/16 13:46:19;;;;;;;2.10;1.55;;;23.60;37.00;;;;;;6136826;28;80592;-72
2022/04/16 13:49:19;;;;;;;2.65;1.73;;;23.60;37.00;;;;;;6136573;28;80324;-72
2022/04/16 13:52:20;;;;;;;1.73;1.55;;;23.60;37.00;;;;;;6136632;28;81820;-72
2022/04/16 13:55:20;;;;;;;3.88;1.88;;;23.60;37.50;;;;;;6136477;28;80345;-72
2022/04/16 13:58:21;;;;;;;1.95;1.60;;;23.60;36.80;;;;;;6112491;28;81355;-72
2022/04/16 14:01:22;;;;;;;1.75;1.48;;;23.60;36.80;;;;;;6135723;28;80431;-72
2022/04/16 14:04:22;;;;;;;3.90;1.50;;;23.60;36.80;;;;;;6129165;28;80930;-72
2022/04/16 14:07:23;;;;;;;1.60;1.23;;;23.60;36.70;;;;;;6112295;28;80906;-72
2022/04/16 14:10:23;;;;;;;1.70;1.55;;;23.60;36.70;;;;;;6125733;28;80369;-72
2022/04/16 14:13:25;;;;;;;1.55;1.40;;;23.60;36.60;;;;;;6135345;28;81094;-72
2022/04/16 14:16:26;;;;;;;2.90;1.70;;;23.60;36.60;;;;;;6134553;28;81565;-73
2022/04/16 14:19:26;;;;;;;1.50;1.40;;;23.60;36.60;;;;;;6131132;28;80879;-72
2022/04/16 14:22:27;;;;;;;2.33;1.42;;;23.60;36.50;;;;;;6111775;28;80467;-75
2022/04/16 14:25:28;;;;;;;1.90;1.70;;;23.60;36.60;;;;;;6114877;28;80491;-73
2022/04/16 14:28:29;;;;;;;1.52;1.40;;;23.60;36.50;;;;;;6111631;28;80399;-73
2022/04/16 14:31:29;;;;;;;1.80;1.25;;;23.60;36.50;;;;;;6129974;28;82106;-73
2022/04/16 14:34:30;;;;;;;2.17;1.67;;;23.60;36.50;;;;;;6130256;28;82023;-73
2022/04/16 14:37:30;;;;;;;1.90;1.67;;;23.60;36.50;;;;;;6135684;28;80657;-74
2022/04/16 14:40:31;;;;;;;1.55;1.40;;;23.60;36.40;;;;;;6125328;28;80989;-74
2022/04/16 14:43:31;;;;;;;1.63;1.27;;;23.60;36.40;;;;;;6128543;28;81861;-73
2022/04/16 14:46:32;;;;;;;5.50;1.83;;;23.60;36.30;;;;;;6117742;28;81668;-73
2022/04/16 14:49:32;;;;;;;4.55;1.90;;;23.60;36.30;;;;;;6110946;28;80846;-72
2022/04/16 14:52:33;;;;;;;1.95;1.63;;;23.60;36.30;;;;;;6118217;28;80785;-73
2022/04/16 14:55:36;;;;;;;3.50;1.40;;;23.60;36.30;;;;;;6127413;28;80692;-73
2022/04/16 14:58:38;;;;;;;1.58;1.48;;;23.60;36.30;;;;;;6111519;28;80465;-74
2022/04/16 15:01:39;;;;;;;2.67;1.75;;;23.60;36.30;;;;;;6111038;28;80551;-74
2022/04/16 15:04:39;;;;;;;1.90;1.60;;;23.60;36.40;;;;;;6111199;28;80728;-74
2022/04/16 15:07:41;;;;;;;1.85;1.40;;;23.60;36.20;;;;;;6126811;28;80041;-73
2022/04/16 15:10:42;;;;;;;1.30;1.20;;;23.60;36.20;;;;;;6128498;28;81215;-73
2022/04/16 15:13:42;;;;;;;1.98;1.58;;;23.60;36.30;;;;;;6110620;28;80443;-72
2022/04/16 15:16:43;;;;;;;2.65;1.65;;;23.50;36.20;;;;;;6125263;28;80565;-73
2022/04/16 15:19:44;;;;;;;2.30;1.50;;;23.50;36.10;;;;;;6135227;28;80985;-74
2022/04/16 15:22:45;;;;;;;2.33;1.73;;;23.50;36.10;;;;;;6111176;28;80414;-74
2022/04/16 15:25:47;;;;;;;3.38;1.52;;;23.50;36.10;;;;;;6110197;28;80487;-75
2022/04/16 15:28:47;;;;;;;2.00;1.63;;;23.50;36.10;;;;;;6111382;28;80469;-75
2022/04/16 15:31:48;;;;;;;1.73;1.60;;;23.50;36.00;;;;;;6117167;28;80763;-76
2022/04/16 15:34:48;;;;;;;2.40;1.92;;;23.50;36.10;;;;;;6144903;28;81470;-74
2022/04/16 15:37:49;;;;;;;2.50;1.42;;;23.50;36.10;;;;;;6134489;28;80394;-75
2022/04/16 15:40:51;;;;;;;2.40;1.33;;;23.50;36.00;;;;;;6133987;28;80378;-75
2022/04/16 15:43:52;;;;;;;1.40;1.30;;;23.50;36.10;;;;;;6133195;28;82339;-75
2022/04/16 15:46:52;;;;;;;1.85;1.50;;;23.50;36.00;;;;;;6134171;28;81110;-74
2022/04/16 15:49:56;;;;;;;1.98;1.50;;;23.50;36.00;;;;;;6134552;28;80296;-73
2022/04/16 15:52:58;;;;;;;3.95;1.55;;;23.50;36.00;;;;;;6115781;28;80756;-73
2022/04/16 15:55:59;;;;;;;1.60;1.30;;;23.50;36.00;;;;;;6110150;28;80382;-73
2022/04/16 15:59:02;;;;;;;2.78;1.77;;;23.40;35.90;;;;;;6109741;28;80858;-74
2022/04/16 16:02:02;;;;;;;1.45;1.35;;;23.40;35.90;;;;;;6118334;28;80538;-75
2022/04/16 16:05:07;;;;;;;2.65;1.60;;;23.40;36.50;;;;;;6134100;28;80425;-75
2022/04/16 16:08:08;;;;;;;2.30;1.70;;;23.40;35.90;;;;;;6116446;28;80480;-73